DRI-NNSC Building Weather observations

Data are for 10 minute period ending at time listed.
 Day   Time   Solar   Ave.   Ave.  Ave.  Vector  Max.   Baro.   Total    
  of    of     Rad.   Air    Rel.  Wind   Wind   Wind  Press.  Precip.   
Year   Day            Temp.  Hum.  Speed  Dir.   Gust                    
2015   (PST)  Kw/m2    F      %     mph   deg.    mph    mb.     in.     
-------------------------------------------------------------------------
 107    7:40   0.40   47.7    22    1.6   129      4   854.1    0.00 
 107    7:50   0.43   47.3    21    2.4    98      4   854.2    0.00 
 107    8:00   0.47   48.0    20    2.4   108      4   854.2    0.00 
 107    8:10   0.50   49.5    19    1.6   131      4   854.1    0.00 
 107    8:20   0.53   50.3    18    2.4   140      5   854.2    0.00 
 107    8:30   0.56   50.5    18    2.8   126      4   854.1    0.00 
 107    8:40   0.59   50.8    18    2.6   122      4   854.2    0.00 
 107    8:50   0.60   52.0    18    2.8   135      5   854.2    0.00 
 107    9:00   0.65   52.2    17    2.8   118      5   854.2    0.00 
 107    9:10   0.68   53.3    16    3.0   124      5   854.1    0.00 
 107    9:20   0.71   54.2    15    2.6   103      6   854.1    0.00 
 107    9:30   0.74   54.8    15    2.9   105      5   854.2    0.00 
 107    9:40   0.76   56.0    14    2.1   119      5   854.1    0.00 
 107    9:50   0.78   56.5    12    3.1   109      7   854.1    0.00 
 107   10:00   0.81   58.5    11    2.2   139      6   854.1    0.00 
 107   10:10   0.80   58.5    11    2.3   175      6   854.1    0.00 
 107   10:20   0.84   59.1    10    4.1   138      9   854.1    0.00 
 107   10:30   0.86   59.0    10    3.2   153      8   854.1    0.00 
 107   10:40   0.88   59.4     9    2.5   251      6   854.0    0.00 
 107   10:50   0.89   58.9    10    4.8   128      9   854.0    0.00 
 107   11:00   0.90   60.7     9    4.9   152      9   854.0    0.00 
 107   11:10   0.91   60.5     9    2.9    98      8   853.9    0.00 
 107   11:20   0.92   60.9     9    4.3   120      9   853.8    0.00 
 107   11:30   0.93   61.0     9    2.3    89      8   853.6    0.00 
 107   11:40   0.94   61.0     9    4.8    76      9   853.5    0.00 
 107   11:50   0.94   61.9     8    2.3   206      5   853.4    0.00 
 107   12:00   0.94   62.4     8    3.4    68      8   853.2    0.00 
 107   12:10   0.94   62.4     8    4.5    40      9   853.1    0.00 
 107   12:20   0.94   62.8     7    2.4    30      7   853.0    0.00 
 107   12:30   0.94   64.0     7    3.3   285      7   852.9    0.00 
 107   12:40   0.94   63.8     8    4.2   241      8   852.7    0.00 
 107   12:50   0.92   65.2     7    3.4   269      7   852.5    0.00 
 107   13:00   0.92   65.2     7    3.7   109     10   852.4    0.00 
 107   13:10   0.91   64.6     7    3.3    76      8   852.3    0.00 
 107   13:20   0.90   66.1     6    4.2    62     12   852.1    0.00 
 107   13:30   0.89   65.8     5    3.3    24      8   852.0    0.00 
 107   13:40   0.87   67.4     5    2.1   221      5   851.8    0.00 
 107   13:50   0.86   66.2     6    2.7    74      9   851.8    0.00 
 107   14:00   0.84   66.7     6    4.6     2     12   851.7    0.00 
 107   14:10   0.82   66.6     6    4.5    29     10   851.5    0.00 
 107   14:20   0.80   67.9     6    1.9   132      6   851.3    0.00 
 107   14:30   0.78   67.5     5    4.0    41      9   851.1    0.00 
 107   14:40   0.75   67.7     6    3.0   296      6   851.0    0.00 
 107   14:50   0.72   68.3     5    2.2    80      9   851.0    0.00 
 107   15:00   0.70   68.2     5    5.4   118     11   850.7    0.00 
 107   15:10   0.67   68.4     6    3.5    89     10   850.7    0.00 
 107   15:20   0.64   68.8     6    7.8    31     14   850.8    0.00 
 107   15:30   0.61   68.2     6    5.0    84      9   851.1    0.00 
 107   15:40   0.58   69.3     6    6.1    42     13   850.9    0.00 
 107   15:50   0.55   68.4     5    3.2   357      9   850.9    0.00 
 107   16:00   0.52   69.3     4    4.5   318     10   850.7    0.00 
 107   16:10   0.49   69.1     4    5.1   328      9   850.7    0.00 
 107   16:20   0.45   68.9     4    9.4    32     17   850.7    0.00 
 107   16:30   0.41   68.5     4    6.9    19     14   850.7    0.00 
 107   16:40   0.38   68.6     4    6.7    35     15   850.6    0.00 
 107   16:50   0.34   69.1     4    5.1    63     11   850.6    0.00 
 107   17:00   0.31   69.1     4    5.0    41     11   850.7    0.00 
 107   17:10   0.27   68.4     4    7.4    46     14   850.5    0.00 
 107   17:20   0.24   67.7     4    8.3    33     13   850.4    0.00 
 107   17:30   0.20   67.5     5    8.4    34     12   850.4    0.00 
 107   17:40   0.17   66.7     7   11.1    38     16   850.4    0.00 
 107   17:50   0.14   65.9     8    9.6    38     15   850.5    0.00 
 107   18:00   0.11   65.1     8    9.5    38     15   850.6    0.00 
 107   18:10   0.08   64.3     8    9.2    29     12   850.6    0.00 
 107   18:20   0.02   63.5     8    8.9    28     12   850.6    0.00 
 107   18:30   0.01   62.8     8    8.5    28     12   850.6    0.00 
 107   18:40   0.01   62.2     8    7.5    25     11   850.7    0.00 
 107   18:50   0.00   61.5     8    7.2    21     11   850.7    0.00 
 107   19:00   0.00   61.5     8    7.9    18     13   850.7    0.00 
 107   19:10   0.00   61.3     8    7.7    22     12   850.8    0.00 
 107   19:20   0.00   61.4     8    6.3    12      9   850.9    0.00 
 107   19:30   0.00   61.1     8    5.5   358      8   851.0    0.00 
 107   19:40   0.00   60.0     8    4.6   342      6   851.1    0.00 
 107   19:50   0.00   59.1     9    4.3   337      6   851.1    0.00 
 107   20:00   0.00   58.9     9    4.3   337      7   851.3    0.00 
 107   20:10   0.00   58.9     9    3.5   328      5   851.4    0.00 
 107   20:20   0.00   58.2    10    3.8   305      6   851.5    0.00 
 107   20:30   0.00   57.0    11    3.3   316      5   851.5    0.00 
 107   20:40   0.00   58.3    10    3.0   313      4   851.5    0.00 
 107   20:50   0.00   58.8     9    3.0   311      4   851.6    0.00 
 107   21:00   0.00   58.6     9    2.8   309      4   851.6    0.00 
 107   21:10   0.00   59.0     9    2.5   295      4   851.6    0.00 
 107   21:20   0.00   59.3    10    2.3   276      4   851.6    0.00 
 107   21:30   0.00   58.7    10    2.2   313      4   851.6    0.00 
 107   21:40   0.00   55.9    11    2.9    39      5   851.6    0.00 
 107   21:50   0.00   56.1    11    3.0   321      7   851.6    0.00 
 107   22:00   0.00   55.9    11    4.9   321     10   851.7    0.00 
 107   22:10   0.00   56.4    11    5.5   319      9   851.7    0.00 
 107   22:20   0.00   56.3    11    5.5   324      9   851.7    0.00 
 107   22:30   0.00   56.8    11    4.2   329      7   851.8    0.00 
 107   22:40   0.00   55.7    11    3.0    40      6   851.9    0.00 
 107   22:50   0.00   55.0    12    1.6   355      5   851.9    0.00 
 107   23:00   0.00   55.8    11    3.4    41      8   851.9    0.00 
 107   23:10   0.00   54.2    12    2.0   109      4   851.9    0.00 
 107   23:20   0.00   53.4    13    2.1    30      4   851.9    0.00 
 107   23:30   0.00   53.4    12    4.6    44      7   852.0    0.00 
 107   23:40   0.00   52.9    13    3.1     5      6   852.0    0.00 
 107   23:50   0.00   52.7    13    3.0   359      5   852.0    0.00 
 108    0:00   0.00   54.5    11    4.0     0      7   851.9    0.00 
 108    0:10   0.00   54.0    12    2.3   350      7   851.8    0.00 
 108    0:20   0.00   52.8    12    2.5   338      5   851.7    0.00 
 108    0:30   0.00   52.9    12    2.3   339      5   851.7    0.00 
 108    0:40   0.00   53.2    12    0.5   100      2   851.6    0.00 
 108    0:50   0.00   53.0    13    0.9   161      3   851.6    0.00 
 108    1:00   0.00   50.1    15    0.9   177      2   851.6    0.00 
 108    1:10   0.00   49.8    16    0.8   308      2   851.6    0.00 
 108    1:20   0.00   51.1    14    3.3   340      5   851.5    0.00 
 108    1:30   0.00   52.6    13    2.2   339      5   851.5    0.00 
 108    1:40   0.00   52.0    14    0.8    60      2   851.5    0.00 
 108    1:50   0.00   50.7    15    1.5   152      3   851.5    0.00 
 108    2:00   0.00   49.7    16    1.0    61      3   851.5    0.00 
 108    2:10   0.00   49.4    16    3.3    33      5   851.4    0.00 
 108    2:20   0.00   49.7    17    2.8   299      5   851.4    0.00 
 108    2:30   0.00   47.1    18    3.1   318      4   851.5    0.00 
 108    2:40   0.00   48.0    19    2.4   331      4   851.5    0.00 
 108    2:50   0.00   46.9    20    4.4   331      6   851.5    0.00 
 108    3:00   0.00   47.2    21    4.0   317      6   851.6    0.00 
 108    3:10   0.00   47.6    21    3.0   312      5   851.6    0.00 
 108    3:20   0.00   46.8    22    3.6   323      6   851.6    0.00 
 108    3:30   0.00   48.0    24    4.4   332      6   851.5    0.00 
 108    3:40   0.00   49.0    26    4.2   329      6   851.6    0.00 
 108    3:50   0.00   49.2    26    3.4   338      5   851.5    0.00 
 108    4:00   0.00   49.1    26    2.1   305      4   851.5    0.00 
 108    4:10   0.00   49.4    25    2.8   342      5   851.4    0.00 
 108    4:20   0.00   48.5    25    1.8    58      3   851.5    0.00 
 108    4:30   0.00   45.9    26    1.5   187      3   851.6    0.00 
 108    4:40   0.00   44.6    26    0.9   179      2   851.5    0.00 
 108    4:50   0.00   45.3    26    0.7   156      2   851.6    0.00 
 108    5:00   0.00   46.4    26    0.6   338      2   851.6    0.00 
 108    5:10   0.00   46.7    26    0.3   190      2   851.6    0.00 
 108    5:20   0.00   46.2    27    1.2    69      3   851.6    0.00 
 108    5:30   0.01   46.7    27    1.7    36      4   851.6    0.00 
 108    5:40   0.01   46.6    28    0.3   144      2   851.6    0.00 
 108    5:50   0.04   47.1    28    0.7   224      2   851.6    0.00 
 108    6:00   0.07   48.0    26    0.8    97      2   851.7    0.00 
 108    6:10   0.10   48.0    25    0.6    38      2   851.7    0.00 
 108    6:20   0.13   47.6    25    2.1    24      4   851.8    0.00 
 108    6:30   0.16   50.0    24    0.8    70      3   851.8    0.00 
 108    6:40   0.19   49.7    25    0.7    76      2   851.9    0.00 
 108    6:50   0.22   49.9    25    1.3    77      3   852.0    0.00 
 108    7:00   0.26   50.2    26    1.9    95      3   852.1    0.00 
 108    7:10   0.29   50.8    25    1.7   126      3   852.1    0.00 
 108    7:20   0.32   51.6    25    1.3   182      3   852.1    0.00 
 108    7:30   0.36   51.8    25    2.0   180      3   852.1    0.00 

Return to NNSC graphs page.


Western Regional Climate Center,wrcc@dri.edu